sensor_id;sensor_type;location;lat;lon;timestamp;pressure;altitude;pressure_sealevel;temperature;humidity
13080;BME280;6606;49.154;9.280;2023-04-07T00:02:53;99710.59;;;7.79;100.00
13080;BME280;6606;49.154;9.280;2023-04-07T00:05:35;99713.47;;;7.73;100.00
13080;BME280;6606;49.154;9.280;2023-04-07T00:08:17;99715.75;;;7.82;100.00
13080;BME280;6606;49.154;9.280;2023-04-07T00:10:59;99706.69;;;7.89;100.00
13080;BME280;6606;49.154;9.280;2023-04-07T00:13:40;99702.44;;;7.85;100.00
13080;BME280;6606;49.154;9.280;2023-04-07T00:16:22;99700.59;;;7.87;100.00
13080;BME280;6606;49.154;9.280;2023-04-07T00:19:05;99698.53;;;7.96;100.00
13080;BME280;6606;49.154;9.280;2023-04-07T00:21:47;99692.94;;;7.81;100.00
13080;BME280;6606;49.154;9.280;2023-04-07T00:24:29;99695.97;;;7.94;100.00
13080;BME280;6606;49.154;9.280;2023-04-07T00:27:12;99688.34;;;7.86;100.00
13080;BME280;6606;49.154;9.280;2023-04-07T00:29:54;99681.88;;;7.93;100.00
13080;BME280;6606;49.154;9.280;2023-04-07T00:32:38;99681.00;;;7.71;100.00
13080;BME280;6606;49.154;9.280;2023-04-07T00:35:21;99673.25;;;7.66;100.00
13080;BME280;6606;49.154;9.280;2023-04-07T00:38:03;99667.88;;;7.69;100.00
13080;BME280;6606;49.154;9.280;2023-04-07T00:40:45;99660.75;;;7.71;100.00
13080;BME280;6606;49.154;9.280;2023-04-07T00:43:27;99653.50;;;7.55;100.00
13080;BME280;6606;49.154;9.280;2023-04-07T00:46:09;99650.50;;;7.40;100.00
13080;BME280;6606;49.154;9.280;2023-04-07T00:48:51;99652.75;;;7.27;100.00
13080;BME280;6606;49.154;9.280;2023-04-07T00:51:34;99648.56;;;7.22;100.00
13080;BME280;6606;49.154;9.280;2023-04-07T00:54:17;99643.66;;;7.36;100.00
13080;BME280;6606;49.154;9.280;2023-04-07T00:56:59;99643.28;;;7.45;100.00
13080;BME280;6606;49.154;9.280;2023-04-07T00:59:43;99646.34;;;7.35;100.00
13080;BME280;6606;49.154;9.280;2023-04-07T01:02:29;99634.59;;;7.20;100.00
13080;BME280;6606;49.154;9.280;2023-04-07T01:05:15;99622.50;;;7.14;100.00
13080;BME280;6606;49.154;9.280;2023-04-07T01:08:08;99627.25;;;7.04;100.00
13080;BME280;6606;49.154;9.280;2023-04-07T01:10:59;99630.69;;;7.07;100.00
13080;BME280;6606;49.154;9.280;2023-04-07T01:13:48;99625.44;;;7.07;100.00
13080;BME280;6606;49.154;9.280;2023-04-07T01:16:56;99624.06;;;7.20;100.00
13080;BME280;6606;49.154;9.280;2023-04-07T01:19:42;99622.44;;;7.39;100.00
13080;BME280;6606;49.154;9.280;2023-04-07T01:22:32;99615.22;;;7.44;100.00
13080;BME280;6606;49.154;9.280;2023-04-07T01:25:26;99615.34;;;7.41;100.00
13080;BME280;6606;49.154;9.280;2023-04-07T01:28:33;99605.34;;;7.49;100.00
13080;BME280;6606;49.154;9.280;2023-04-07T01:31:24;99602.72;;;7.49;100.00
13080;BME280;6606;49.154;9.280;2023-04-07T01:34:08;99594.28;;;7.40;100.00
13080;BME280;6606;49.154;9.280;2023-04-07T01:36:51;99601.50;;;7.35;100.00
13080;BME280;6606;49.154;9.280;2023-04-07T01:39:35;99599.97;;;7.29;100.00
13080;BME280;6606;49.154;9.280;2023-04-07T01:42:19;99599.13;;;7.29;100.00
13080;BME280;6606;49.154;9.280;2023-04-07T01:45:01;99598.81;;;7.60;100.00
13080;BME280;6606;49.154;9.280;2023-04-07T01:47:45;99595.63;;;7.52;100.00
13080;BME280;6606;49.154;9.280;2023-04-07T01:50:28;99590.56;;;7.45;100.00
13080;BME280;6606;49.154;9.280;2023-04-07T01:53:10;99587.47;;;7.34;100.00
13080;BME280;6606;49.154;9.280;2023-04-07T01:55:53;99580.13;;;7.42;100.00
13080;BME280;6606;49.154;9.280;2023-04-07T01:58:36;99578.91;;;7.51;100.00
13080;BME280;6606;49.154;9.280;2023-04-07T02:01:20;99581.63;;;7.49;100.00
13080;BME280;6606;49.154;9.280;2023-04-07T02:04:11;99583.31;;;7.51;100.00
13080;BME280;6606;49.154;9.280;2023-04-07T02:06:57;99581.25;;;7.59;100.00
13080;BME280;6606;49.154;9.280;2023-04-07T02:09:48;99576.78;;;7.61;100.00
13080;BME280;6606;49.154;9.280;2023-04-07T02:12:32;99572.06;;;7.47;100.00
13080;BME280;6606;49.154;9.280;2023-04-07T02:15:25;99569.00;;;7.58;100.00
13080;BME280;6606;49.154;9.280;2023-04-07T02:18:08;99567.03;;;7.63;100.00
13080;BME280;6606;49.154;9.280;2023-04-07T02:20:54;99566.94;;;7.64;100.00
13080;BME280;6606;49.154;9.280;2023-04-07T02:23:36;99565.50;;;7.79;100.00
13080;BME280;6606;49.154;9.280;2023-04-07T02:26:19;99565.78;;;7.71;100.00
13080;BME280;6606;49.154;9.280;2023-04-07T02:29:03;99557.03;;;7.71;100.00
13080;BME280;6606;49.154;9.280;2023-04-07T02:31:45;99563.59;;;7.61;100.00
13080;BME280;6606;49.154;9.280;2023-04-07T02:34:27;99557.50;;;7.59;100.00
13080;BME280;6606;49.154;9.280;2023-04-07T02:37:10;99557.72;;;7.54;100.00
13080;BME280;6606;49.154;9.280;2023-04-07T02:39:52;99554.25;;;7.74;100.00
13080;BME280;6606;49.154;9.280;2023-04-07T02:42:34;99561.25;;;7.75;100.00
13080;BME280;6606;49.154;9.280;2023-04-07T02:45:17;99559.19;;;7.83;100.00
13080;BME280;6606;49.154;9.280;2023-04-07T02:47:58;99553.16;;;7.80;100.00
13080;BME280;6606;49.154;9.280;2023-04-07T02:50:40;99552.28;;;7.79;100.00
13080;BME280;6606;49.154;9.280;2023-04-07T02:53:23;99551.63;;;7.74;100.00
13080;BME280;6606;49.154;9.280;2023-04-07T02:56:05;99544.78;;;7.90;100.00
13080;BME280;6606;49.154;9.280;2023-04-07T02:58:47;99545.31;;;7.78;100.00
13080;BME280;6606;49.154;9.280;2023-04-07T03:01:30;99545.41;;;7.75;100.00
13080;BME280;6606;49.154;9.280;2023-04-07T03:04:14;99537.22;;;7.61;100.00
13080;BME280;6606;49.154;9.280;2023-04-07T03:06:57;99534.88;;;7.53;100.00
13080;BME280;6606;49.154;9.280;2023-04-07T03:09:42;99533.47;;;7.66;100.00
13080;BME280;6606;49.154;9.280;2023-04-07T03:12:25;99537.63;;;7.72;100.00
13080;BME280;6606;49.154;9.280;2023-04-07T03:15:07;99530.09;;;7.63;100.00
13080;BME280;6606;49.154;9.280;2023-04-07T03:17:50;99523.44;;;7.54;100.00
13080;BME280;6606;49.154;9.280;2023-04-07T03:20:32;99530.84;;;7.44;100.00
13080;BME280;6606;49.154;9.280;2023-04-07T03:23:21;99523.09;;;7.62;100.00
13080;BME280;6606;49.154;9.280;2023-04-07T03:26:05;99521.13;;;7.67;100.00
13080;BME280;6606;49.154;9.280;2023-04-07T03:28:50;99524.69;;;7.66;100.00
13080;BME280;6606;49.154;9.280;2023-04-07T03:31:33;99520.53;;;7.60;100.00
13080;BME280;6606;49.154;9.280;2023-04-07T03:34:17;99522.59;;;7.74;100.00
13080;BME280;6606;49.154;9.280;2023-04-07T03:36:58;99517.94;;;7.81;100.00
13080;BME280;6606;49.154;9.280;2023-04-07T03:39:42;99515.09;;;7.85;100.00
13080;BME280;6606;49.154;9.280;2023-04-07T03:42:38;99508.38;;;7.78;100.00
13080;BME280;6606;49.154;9.280;2023-04-07T03:45:23;99506.78;;;7.74;100.00
13080;BME280;6606;49.154;9.280;2023-04-07T03:48:06;99516.97;;;7.61;100.00
13080;BME280;6606;49.154;9.280;2023-04-07T03:50:55;99507.50;;;7.78;100.00
13080;BME280;6606;49.154;9.280;2023-04-07T03:53:37;99512.88;;;7.97;100.00
13080;BME280;6606;49.154;9.280;2023-04-07T03:56:31;99509.19;;;8.01;100.00
13080;BME280;6606;49.154;9.280;2023-04-07T03:59:14;99518.94;;;7.99;100.00
13080;BME280;6606;49.154;9.280;2023-04-07T04:02:07;99521.88;;;8.13;100.00
13080;BME280;6606;49.154;9.280;2023-04-07T04:04:50;99516.06;;;8.05;100.00
13080;BME280;6606;49.154;9.280;2023-04-07T04:07:35;99513.81;;;8.16;100.00
13080;BME280;6606;49.154;9.280;2023-04-07T04:10:19;99516.78;;;8.08;100.00
13080;BME280;6606;49.154;9.280;2023-04-07T04:13:04;99512.97;;;8.15;100.00
13080;BME280;6606;49.154;9.280;2023-04-07T04:15:49;99516.38;;;8.18;100.00
13080;BME280;6606;49.154;9.280;2023-04-07T04:18:31;99507.81;;;8.12;100.00
13080;BME280;6606;49.154;9.280;2023-04-07T04:21:13;99514.34;;;8.24;100.00
13080;BME280;6606;49.154;9.280;2023-04-07T04:23:57;99513.66;;;8.19;100.00
13080;BME280;6606;49.154;9.280;2023-04-07T04:26:42;99514.59;;;8.18;100.00
13080;BME280;6606;49.154;9.280;2023-04-07T04:29:26;99514.31;;;8.04;100.00
13080;BME280;6606;49.154;9.280;2023-04-07T04:32:13;99514.47;;;8.01;100.00
13080;BME280;6606;49.154;9.280;2023-04-07T04:34:57;99512.22;;;8.12;100.00
13080;BME280;6606;49.154;9.280;2023-04-07T04:37:39;99516.78;;;8.08;100.00
13080;BME280;6606;49.154;9.280;2023-04-07T04:40:24;99518.78;;;8.02;100.00
13080;BME280;6606;49.154;9.280;2023-04-07T04:43:07;99516.56;;;7.92;100.00
13080;BME280;6606;49.154;9.280;2023-04-07T04:45:51;99520.53;;;8.03;100.00
13080;BME280;6606;49.154;9.280;2023-04-07T04:48:38;99523.31;;;8.00;100.00
13080;BME280;6606;49.154;9.280;2023-04-07T04:51:20;99508.25;;;7.81;100.00
13080;BME280;6606;49.154;9.280;2023-04-07T04:54:08;99518.19;;;7.53;100.00
13080;BME280;6606;49.154;9.280;2023-04-07T04:56:50;99519.28;;;7.69;100.00
13080;BME280;6606;49.154;9.280;2023-04-07T04:59:32;99514.88;;;7.47;100.00
13080;BME280;6606;49.154;9.280;2023-04-07T05:02:17;99512.81;;;7.56;100.00
13080;BME280;6606;49.154;9.280;2023-04-07T05:05:00;99503.50;;;7.47;100.00
13080;BME280;6606;49.154;9.280;2023-04-07T05:07:43;99500.97;;;7.44;100.00
13080;BME280;6606;49.154;9.280;2023-04-07T05:10:27;99507.09;;;7.44;100.00
13080;BME280;6606;49.154;9.280;2023-04-07T05:13:12;99501.16;;;7.39;100.00
13080;BME280;6606;49.154;9.280;2023-04-07T05:15:54;99506.03;;;7.48;100.00
13080;BME280;6606;49.154;9.280;2023-04-07T05:18:36;99503.00;;;7.37;100.00
13080;BME280;6606;49.154;9.280;2023-04-07T05:21:20;99506.19;;;7.45;100.00
13080;BME280;6606;49.154;9.280;2023-04-07T05:24:05;99511.22;;;7.52;100.00
13080;BME280;6606;49.154;9.280;2023-04-07T05:26:47;99500.53;;;7.55;100.00
13080;BME280;6606;49.154;9.280;2023-04-07T05:29:29;99503.84;;;7.60;100.00
13080;BME280;6606;49.154;9.280;2023-04-07T05:32:12;99507.53;;;7.56;100.00
13080;BME280;6606;49.154;9.280;2023-04-07T05:34:54;99500.78;;;7.48;100.00
13080;BME280;6606;49.154;9.280;2023-04-07T05:37:47;99504.34;;;7.47;100.00
13080;BME280;6606;49.154;9.280;2023-04-07T05:40:32;99503.94;;;7.57;100.00
13080;BME280;6606;49.154;9.280;2023-04-07T05:43:16;99503.34;;;7.72;100.00
13080;BME280;6606;49.154;9.280;2023-04-07T05:45:58;99505.47;;;7.84;100.00
13080;BME280;6606;49.154;9.280;2023-04-07T05:48:41;99506.00;;;7.92;100.00
13080;BME280;6606;49.154;9.280;2023-04-07T05:51:22;99507.97;;;7.87;100.00
13080;BME280;6606;49.154;9.280;2023-04-07T05:54:09;99511.41;;;7.89;100.00
13080;BME280;6606;49.154;9.280;2023-04-07T05:56:50;99515.50;;;8.17;100.00
13080;BME280;6606;49.154;9.280;2023-04-07T05:59:32;99512.53;;;8.25;100.00
13080;BME280;6606;49.154;9.280;2023-04-07T06:02:15;99515.38;;;8.20;100.00
13080;BME280;6606;49.154;9.280;2023-04-07T06:04:59;99524.22;;;8.19;100.00
13080;BME280;6606;49.154;9.280;2023-04-07T06:07:41;99524.50;;;8.13;100.00
13080;BME280;6606;49.154;9.280;2023-04-07T06:10:25;99512.34;;;8.09;100.00
13080;BME280;6606;49.154;9.280;2023-04-07T06:13:10;99513.94;;;8.13;100.00
13080;BME280;6606;49.154;9.280;2023-04-07T06:15:54;99514.47;;;8.21;100.00
13080;BME280;6606;49.154;9.280;2023-04-07T06:18:36;99515.13;;;8.26;100.00
13080;BME280;6606;49.154;9.280;2023-04-07T06:21:22;99516.56;;;8.33;100.00
13080;BME280;6606;49.154;9.280;2023-04-07T06:24:05;99503.66;;;8.48;100.00
13080;BME280;6606;49.154;9.280;2023-04-07T06:26:51;99510.25;;;8.58;100.00
13080;BME280;6606;49.154;9.280;2023-04-07T06:29:34;99515.38;;;8.61;100.00
13080;BME280;6606;49.154;9.280;2023-04-07T06:32:19;99517.00;;;8.45;100.00
13080;BME280;6606;49.154;9.280;2023-04-07T06:35:01;99519.66;;;8.45;100.00
13080;BME280;6606;49.154;9.280;2023-04-07T06:37:44;99511.88;;;8.20;100.00
13080;BME280;6606;49.154;9.280;2023-04-07T06:40:25;99506.72;;;7.96;100.00
13080;BME280;6606;49.154;9.280;2023-04-07T06:43:08;99510.34;;;7.93;100.00
13080;BME280;6606;49.154;9.280;2023-04-07T06:45:57;99506.63;;;7.99;100.00
13080;BME280;6606;49.154;9.280;2023-04-07T06:48:39;99507.66;;;7.95;100.00
13080;BME280;6606;49.154;9.280;2023-04-07T06:51:21;99512.16;;;8.34;100.00
13080;BME280;6606;49.154;9.280;2023-04-07T06:54:03;99512.22;;;8.53;100.00
13080;BME280;6606;49.154;9.280;2023-04-07T06:56:47;99509.41;;;8.57;100.00
13080;BME280;6606;49.154;9.280;2023-04-07T06:59:30;99501.84;;;8.88;100.00
13080;BME280;6606;49.154;9.280;2023-04-07T07:02:12;99499.56;;;8.99;100.00
13080;BME280;6606;49.154;9.280;2023-04-07T07:04:56;99505.28;;;9.28;100.00
13080;BME280;6606;49.154;9.280;2023-04-07T07:07:38;99504.13;;;9.33;100.00
13080;BME280;6606;49.154;9.280;2023-04-07T07:10:20;99507.06;;;9.63;100.00
13080;BME280;6606;49.154;9.280;2023-04-07T07:13:02;99500.56;;;9.88;100.00
13080;BME280;6606;49.154;9.280;2023-04-07T07:15:46;99501.25;;;10.44;100.00
13080;BME280;6606;49.154;9.280;2023-04-07T07:18:28;99502.06;;;11.11;100.00
13080;BME280;6606;49.154;9.280;2023-04-07T07:21:24;99505.88;;;12.73;100.00
13080;BME280;6606;49.154;9.280;2023-04-07T07:24:06;99507.19;;;14.18;100.00
13080;BME280;6606;49.154;9.280;2023-04-07T07:26:48;99509.81;;;13.65;100.00
13080;BME280;6606;49.154;9.280;2023-04-07T07:29:29;99507.88;;;13.94;100.00
13080;BME280;6606;49.154;9.280;2023-04-07T07:32:20;99502.56;;;14.60;100.00
13080;BME280;6606;49.154;9.280;2023-04-07T07:35:02;99508.66;;;14.62;100.00
13080;BME280;6606;49.154;9.280;2023-04-07T07:37:44;99512.13;;;14.24;100.00
13080;BME280;6606;49.154;9.280;2023-04-07T07:40:26;99515.84;;;14.08;100.00
13080;BME280;6606;49.154;9.280;2023-04-07T07:43:08;99514.00;;;13.42;100.00
13080;BME280;6606;49.154;9.280;2023-04-07T07:45:49;99511.53;;;13.39;100.00
13080;BME280;6606;49.154;9.280;2023-04-07T07:48:32;99519.53;;;13.39;100.00
13080;BME280;6606;49.154;9.280;2023-04-07T07:51:15;99514.00;;;13.42;100.00
13080;BME280;6606;49.154;9.280;2023-04-07T07:54:03;99511.25;;;15.87;100.00
13080;BME280;6606;49.154;9.280;2023-04-07T07:56:45;99507.81;;;16.44;100.00
13080;BME280;6606;49.154;9.280;2023-04-07T07:59:27;99506.06;;;15.11;100.00
13080;BME280;6606;49.154;9.280;2023-04-07T08:02:09;99510.00;;;14.29;100.00
13080;BME280;6606;49.154;9.280;2023-04-07T08:04:52;99520.28;;;14.86;100.00
13080;BME280;6606;49.154;9.280;2023-04-07T08:07:34;99506.78;;;15.13;100.00
13080;BME280;6606;49.154;9.280;2023-04-07T08:10:16;99515.03;;;14.46;100.00
13080;BME280;6606;49.154;9.280;2023-04-07T08:12:59;99519.78;;;15.18;100.00
13080;BME280;6606;49.154;9.280;2023-04-07T08:15:41;99519.47;;;15.72;100.00
13080;BME280;6606;49.154;9.280;2023-04-07T08:18:23;99522.19;;;15.83;100.00
13080;BME280;6606;49.154;9.280;2023-04-07T08:21:06;99523.16;;;15.46;100.00
13080;BME280;6606;49.154;9.280;2023-04-07T08:23:48;99511.78;;;15.18;100.00
13080;BME280;6606;49.154;9.280;2023-04-07T08:26:30;99514.00;;;14.62;100.00
13080;BME280;6606;49.154;9.280;2023-04-07T08:29:12;99520.38;;;14.98;100.00
13080;BME280;6606;49.154;9.280;2023-04-07T08:31:53;99520.19;;;14.75;100.00
13080;BME280;6606;49.154;9.280;2023-04-07T08:34:35;99516.63;;;15.00;100.00
13080;BME280;6606;49.154;9.280;2023-04-07T08:37:18;99513.22;;;14.98;100.00
13080;BME280;6606;49.154;9.280;2023-04-07T08:40:01;99523.38;;;14.80;100.00
13080;BME280;6606;49.154;9.280;2023-04-07T08:42:47;99518.53;;;14.47;100.00
13080;BME280;6606;49.154;9.280;2023-04-07T08:45:30;99522.09;;;14.47;100.00
13080;BME280;6606;49.154;9.280;2023-04-07T08:48:23;99520.66;;;14.42;100.00
13080;BME280;6606;49.154;9.280;2023-04-07T08:51:07;99524.88;;;14.06;100.00
13080;BME280;6606;49.154;9.280;2023-04-07T08:53:52;99528.19;;;14.10;100.00
13080;BME280;6606;49.154;9.280;2023-04-07T08:56:36;99533.00;;;14.83;100.00
13080;BME280;6606;49.154;9.280;2023-04-07T08:59:20;99532.47;;;15.40;100.00
13080;BME280;6606;49.154;9.280;2023-04-07T09:02:06;99531.44;;;15.30;100.00
13080;BME280;6606;49.154;9.280;2023-04-07T09:04:48;99534.34;;;15.14;100.00
13080;BME280;6606;49.154;9.280;2023-04-07T09:07:30;99540.38;;;14.79;100.00
13080;BME280;6606;49.154;9.280;2023-04-07T09:10:15;99537.78;;;14.90;100.00
13080;BME280;6606;49.154;9.280;2023-04-07T09:12:57;99538.06;;;15.24;100.00
13080;BME280;6606;49.154;9.280;2023-04-07T09:15:39;99543.13;;;14.90;100.00
13080;BME280;6606;49.154;9.280;2023-04-07T09:18:21;99543.13;;;15.03;100.00
13080;BME280;6606;49.154;9.280;2023-04-07T09:21:04;99547.75;;;14.36;100.00
13080;BME280;6606;49.154;9.280;2023-04-07T09:23:47;99551.28;;;13.96;100.00
13080;BME280;6606;49.154;9.280;2023-04-07T09:26:30;99549.03;;;13.63;100.00
13080;BME280;6606;49.154;9.280;2023-04-07T09:29:18;99554.50;;;13.47;100.00
13080;BME280;6606;49.154;9.280;2023-04-07T09:32:00;99561.72;;;13.45;100.00
13080;BME280;6606;49.154;9.280;2023-04-07T09:34:42;99566.06;;;13.17;100.00
13080;BME280;6606;49.154;9.280;2023-04-07T09:37:23;99561.75;;;13.02;100.00
13080;BME280;6606;49.154;9.280;2023-04-07T09:40:07;99571.63;;;13.00;100.00
13080;BME280;6606;49.154;9.280;2023-04-07T09:42:50;99561.81;;;13.44;100.00
13080;BME280;6606;49.154;9.280;2023-04-07T09:45:32;99565.94;;;13.89;100.00
13080;BME280;6606;49.154;9.280;2023-04-07T09:48:18;99564.16;;;14.17;100.00
13080;BME280;6606;49.154;9.280;2023-04-07T09:51:05;99559.06;;;14.26;100.00
13080;BME280;6606;49.154;9.280;2023-04-07T09:53:49;99560.44;;;13.92;100.00
13080;BME280;6606;49.154;9.280;2023-04-07T09:56:31;99561.19;;;14.34;100.00
13080;BME280;6606;49.154;9.280;2023-04-07T09:59:15;99554.88;;;14.75;100.00
13080;BME280;6606;49.154;9.280;2023-04-07T10:01:57;99550.34;;;14.37;100.00
13080;BME280;6606;49.154;9.280;2023-04-07T10:04:39;99554.63;;;14.13;100.00
13080;BME280;6606;49.154;9.280;2023-04-07T10:07:21;99557.59;;;14.48;100.00
13080;BME280;6606;49.154;9.280;2023-04-07T10:10:04;99553.97;;;14.49;100.00
13080;BME280;6606;49.154;9.280;2023-04-07T10:12:48;99550.53;;;14.47;100.00
13080;BME280;6606;49.154;9.280;2023-04-07T10:15:35;99549.91;;;14.43;100.00
13080;BME280;6606;49.154;9.280;2023-04-07T10:18:19;99557.53;;;14.22;100.00
13080;BME280;6606;49.154;9.280;2023-04-07T10:21:04;99553.91;;;14.11;100.00
13080;BME280;6606;49.154;9.280;2023-04-07T10:23:52;99552.91;;;14.51;100.00
13080;BME280;6606;49.154;9.280;2023-04-07T10:26:37;99544.09;;;14.64;100.00
13080;BME280;6606;49.154;9.280;2023-04-07T10:29:19;99547.75;;;14.36;100.00
13080;BME280;6606;49.154;9.280;2023-04-07T10:32:03;99549.16;;;15.18;100.00
13080;BME280;6606;49.154;9.280;2023-04-07T10:34:56;99541.56;;;15.37;100.00
13080;BME280;6606;49.154;9.280;2023-04-07T10:37:38;99540.63;;;16.11;100.00
13080;BME280;6606;49.154;9.280;2023-04-07T10:40:27;99544.25;;;15.61;100.00
13080;BME280;6606;49.154;9.280;2023-04-07T10:43:38;99543.44;;;16.91;97.25
13080;BME280;6606;49.154;9.280;2023-04-07T10:46:21;99538.94;;;17.80;91.50
13080;BME280;6606;49.154;9.280;2023-04-07T10:49:09;99541.94;;;16.98;97.72
13080;BME280;6606;49.154;9.280;2023-04-07T10:52:21;99545.38;;;16.54;91.80
13080;BME280;6606;49.154;9.280;2023-04-07T10:55:32;99538.78;;;16.82;87.90
13080;BME280;6606;49.154;9.280;2023-04-07T10:58:16;99535.38;;;17.13;78.84
13080;BME280;6606;49.154;9.280;2023-04-07T11:01:18;99536.09;;;16.82;84.71
13080;BME280;6606;49.154;9.280;2023-04-07T11:04:01;99537.31;;;17.00;87.11
13080;BME280;6606;49.154;9.280;2023-04-07T11:06:48;99536.97;;;16.36;94.30
13080;BME280;6606;49.154;9.280;2023-04-07T11:09:30;99544.75;;;16.39;94.31
13080;BME280;6606;49.154;9.280;2023-04-07T11:12:21;99543.09;;;16.60;90.89
13080;BME280;6606;49.154;9.280;2023-04-07T11:15:15;99534.91;;;16.51;94.01
13080;BME280;6606;49.154;9.280;2023-04-07T11:18:12;99523.28;;;16.74;98.27
13080;BME280;6606;49.154;9.280;2023-04-07T11:20:55;99531.06;;;16.66;92.05
13080;BME280;6606;49.154;9.280;2023-04-07T11:23:45;99530.88;;;17.36;84.91
13080;BME280;6606;49.154;9.280;2023-04-07T11:26:28;99522.44;;;17.52;87.93
13080;BME280;6606;49.154;9.280;2023-04-07T11:29:10;99530.44;;;17.64;84.34
13080;BME280;6606;49.154;9.280;2023-04-07T11:31:52;99528.72;;;16.61;88.00
13080;BME280;6606;49.154;9.280;2023-04-07T11:34:35;99535.75;;;16.98;82.42
13080;BME280;6606;49.154;9.280;2023-04-07T11:37:18;99530.31;;;16.53;85.74
13080;BME280;6606;49.154;9.280;2023-04-07T11:40:01;99531.47;;;16.95;88.90
13080;BME280;6606;49.154;9.280;2023-04-07T11:42:43;99539.72;;;17.48;77.70
13080;BME280;6606;49.154;9.280;2023-04-07T11:45:25;99529.69;;;17.84;68.64
13080;BME280;6606;49.154;9.280;2023-04-07T11:48:25;99530.22;;;16.77;85.67
13080;BME280;6606;49.154;9.280;2023-04-07T11:51:14;99533.38;;;16.59;94.80
13080;BME280;6606;49.154;9.280;2023-04-07T11:53:57;99529.72;;;16.71;78.21
13080;BME280;6606;49.154;9.280;2023-04-07T11:56:45;99539.06;;;16.19;77.47
13080;BME280;6606;49.154;9.280;2023-04-07T11:59:27;99530.63;;;16.37;74.81
13080;BME280;6606;49.154;9.280;2023-04-07T12:02:09;99525.41;;;17.16;64.24
13080;BME280;6606;49.154;9.280;2023-04-07T12:04:55;99529.16;;;17.24;66.16
13080;BME280;6606;49.154;9.280;2023-04-07T12:07:37;99531.31;;;18.08;61.83
13080;BME280;6606;49.154;9.280;2023-04-07T12:10:20;99526.47;;;18.85;63.36
13080;BME280;6606;49.154;9.280;2023-04-07T12:13:07;99517.16;;;19.20;61.28
13080;BME280;6606;49.154;9.280;2023-04-07T12:15:48;99510.09;;;19.69;56.23
13080;BME280;6606;49.154;9.280;2023-04-07T12:18:31;99521.47;;;19.52;51.83
13080;BME280;6606;49.154;9.280;2023-04-07T12:21:13;99527.75;;;18.39;55.73
13080;BME280;6606;49.154;9.280;2023-04-07T12:23:55;99522.84;;;18.44;52.70
13080;BME280;6606;49.154;9.280;2023-04-07T12:26:36;99519.53;;;17.88;56.86
13080;BME280;6606;49.154;9.280;2023-04-07T12:29:20;99528.44;;;17.77;59.99
13080;BME280;6606;49.154;9.280;2023-04-07T12:32:02;99519.69;;;17.75;61.18
13080;BME280;6606;49.154;9.280;2023-04-07T12:34:44;99524.78;;;16.89;74.46
13080;BME280;6606;49.154;9.280;2023-04-07T12:37:27;99528.31;;;16.90;68.60
13080;BME280;6606;49.154;9.280;2023-04-07T12:40:09;99532.44;;;17.28;61.19
13080;BME280;6606;49.154;9.280;2023-04-07T12:42:51;99526.59;;;17.34;59.97
13080;BME280;6606;49.154;9.280;2023-04-07T12:45:34;99521.44;;;17.53;61.92
13080;BME280;6606;49.154;9.280;2023-04-07T12:48:15;99517.97;;;17.74;56.01
13080;BME280;6606;49.154;9.280;2023-04-07T12:50:58;99515.16;;;18.19;53.17
13080;BME280;6606;49.154;9.280;2023-04-07T12:53:39;99513.94;;;18.96;50.33
13080;BME280;6606;49.154;9.280;2023-04-07T12:56:21;99510.59;;;19.53;52.07
13080;BME280;6606;49.154;9.280;2023-04-07T12:59:04;99517.50;;;18.75;51.87
13080;BME280;6606;49.154;9.280;2023-04-07T13:01:47;99522.84;;;18.12;66.87
13080;BME280;6606;49.154;9.280;2023-04-07T13:04:31;99521.69;;;17.50;68.24
13080;BME280;6606;49.154;9.280;2023-04-07T13:07:14;99529.53;;;17.86;70.72
13080;BME280;6606;49.154;9.280;2023-04-07T13:09:56;99522.25;;;17.76;64.51
13080;BME280;6606;49.154;9.280;2023-04-07T13:12:39;99519.03;;;17.94;67.47
13080;BME280;6606;49.154;9.280;2023-04-07T13:15:21;99527.47;;;17.89;61.66
13080;BME280;6606;49.154;9.280;2023-04-07T13:18:05;99521.03;;;17.69;67.06
13080;BME280;6606;49.154;9.280;2023-04-07T13:20:47;99519.53;;;17.44;71.75
13080;BME280;6606;49.154;9.280;2023-04-07T13:23:29;99519.16;;;16.23;84.34
13080;BME280;6606;49.154;9.280;2023-04-07T13:26:11;99516.88;;;15.95;94.99
13080;BME280;6606;49.154;9.280;2023-04-07T13:28:53;99526.03;;;14.93;100.00
13080;BME280;6606;49.154;9.280;2023-04-07T13:31:34;99511.50;;;15.10;100.00
13080;BME280;6606;49.154;9.280;2023-04-07T13:34:17;99513.53;;;15.80;91.70
13080;BME280;6606;49.154;9.280;2023-04-07T13:37:00;99515.84;;;15.85;88.94
13080;BME280;6606;49.154;9.280;2023-04-07T13:39:42;99516.25;;;15.67;92.46
13080;BME280;6606;49.154;9.280;2023-04-07T13:42:24;99511.72;;;15.44;90.55
13080;BME280;6606;49.154;9.280;2023-04-07T13:45:06;99516.84;;;15.10;93.37
13080;BME280;6606;49.154;9.280;2023-04-07T13:47:48;99512.75;;;15.17;97.01
13080;BME280;6606;49.154;9.280;2023-04-07T13:50:34;99511.66;;;15.32;93.08
13080;BME280;6606;49.154;9.280;2023-04-07T13:53:16;99517.94;;;15.31;91.51
13080;BME280;6606;49.154;9.280;2023-04-07T13:55:58;99511.78;;;15.18;93.67
13080;BME280;6606;49.154;9.280;2023-04-07T13:58:40;99511.78;;;15.18;92.33
13080;BME280;6606;49.154;9.280;2023-04-07T14:01:22;99516.59;;;15.26;93.21
13080;BME280;6606;49.154;9.280;2023-04-07T14:04:05;99512.91;;;15.39;89.48
13080;BME280;6606;49.154;9.280;2023-04-07T14:06:49;99518.41;;;15.62;90.98
13080;BME280;6606;49.154;9.280;2023-04-07T14:09:31;99515.34;;;15.79;84.70
13080;BME280;6606;49.154;9.280;2023-04-07T14:12:12;99521.19;;;15.85;88.85
13080;BME280;6606;49.154;9.280;2023-04-07T14:14:54;99533.47;;;16.11;90.52
13080;BME280;6606;49.154;9.280;2023-04-07T14:17:36;99539.91;;;15.85;90.23
13080;BME280;6606;49.154;9.280;2023-04-07T14:20:18;99528.13;;;15.87;84.51
13080;BME280;6606;49.154;9.280;2023-04-07T14:23:01;99531.78;;;15.49;91.82
13080;BME280;6606;49.154;9.280;2023-04-07T14:25:43;99545.19;;;15.97;96.88
13080;BME280;6606;49.154;9.280;2023-04-07T14:28:26;99545.91;;;16.23;83.60
13080;BME280;6606;49.154;9.280;2023-04-07T14:31:11;99536.81;;;16.73;80.99
13080;BME280;6606;49.154;9.280;2023-04-07T14:33:53;99537.22;;;17.02;73.60
13080;BME280;6606;49.154;9.280;2023-04-07T14:36:35;99542.72;;;16.18;79.68
13080;BME280;6606;49.154;9.280;2023-04-07T14:39:19;99537.97;;;15.87;81.44